Lime Ridge, Wisconsin
Current Conditions -  °F | °C
As of 2:15 PM on Wednesday 26 Nov 2014 (Local Time) from KC35 Reporting Station
Overcast Overcast  
Wind Chill: 22°   Ceiling: 1200
Heat Index: 22°   Visibility: 7mi
Dew Point: 18°   Wind: 3mph
Humidity: 82%   Direction: 60°ENE
Pressure: 30.14"   Gusts: NA
Location:  43.47°N, 90.15°W
Report Text: KC35 262015Z AUTO 06003KT 7SM OVC012 M05/M08 A3014 RMK AO2 T10541080
Loading
Personal Weather Stations






























Interactive Weather Map New forecast layout! Learn more

10-Day Weather Forecast

Advertisements
Track Severe Weather on mobile